sensor_id;sensor_type;location;lat;lon;timestamp;P1;durP1;ratioP1;P2;durP2;ratioP2
65463;SDS011;52063;45.110;9.870;2023-04-20T00:00:21;1.00;;;0.80;;
65463;SDS011;52063;45.110;9.870;2023-04-20T00:02:46;1.10;;;0.90;;
65463;SDS011;52063;45.110;9.870;2023-04-20T00:05:12;1.25;;;0.90;;
65463;SDS011;52063;45.110;9.870;2023-04-20T00:07:37;0.93;;;0.83;;
65463;SDS011;52063;45.110;9.870;2023-04-20T00:10:05;0.98;;;0.80;;
65463;SDS011;52063;45.110;9.870;2023-04-20T00:12:32;1.07;;;0.97;;
65463;SDS011;52063;45.110;9.870;2023-04-20T00:14:57;1.13;;;1.02;;
65463;SDS011;52063;45.110;9.870;2023-04-20T00:17:23;1.40;;;0.90;;
65463;SDS011;52063;45.110;9.870;2023-04-20T00:19:48;1.23;;;1.10;;
65463;SDS011;52063;45.110;9.870;2023-04-20T00:22:14;1.33;;;1.10;;
65463;SDS011;52063;45.110;9.870;2023-04-20T00:24:39;0.93;;;0.87;;
65463;SDS011;52063;45.110;9.870;2023-04-20T00:27:05;0.97;;;0.80;;
65463;SDS011;52063;45.110;9.870;2023-04-20T00:29:30;1.10;;;1.00;;
65463;SDS011;52063;45.110;9.870;2023-04-20T00:31:56;1.00;;;0.90;;
65463;SDS011;52063;45.110;9.870;2023-04-20T00:34:21;1.10;;;0.90;;
65463;SDS011;52063;45.110;9.870;2023-04-20T00:36:47;1.20;;;1.10;;
65463;SDS011;52063;45.110;9.870;2023-04-20T00:39:12;0.90;;;0.80;;
65463;SDS011;52063;45.110;9.870;2023-04-20T00:41:38;1.23;;;1.13;;
65463;SDS011;52063;45.110;9.870;2023-04-20T00:44:05;0.90;;;0.77;;
65463;SDS011;52063;45.110;9.870;2023-04-20T00:46:32;1.50;;;0.82;;
65463;SDS011;52063;45.110;9.870;2023-04-20T00:48:58;1.00;;;0.90;;
65463;SDS011;52063;45.110;9.870;2023-04-20T00:51:25;1.75;;;0.85;;
65463;SDS011;52063;45.110;9.870;2023-04-20T00:53:52;1.15;;;1.05;;
65463;SDS011;52063;45.110;9.870;2023-04-20T00:56:17;1.03;;;0.90;;
65463;SDS011;52063;45.110;9.870;2023-04-20T00:58:43;0.95;;;0.85;;
65463;SDS011;52063;45.110;9.870;2023-04-20T01:01:10;1.50;;;0.70;;
65463;SDS011;52063;45.110;9.870;2023-04-20T01:03:40;1.35;;;0.88;;
65463;SDS011;52063;45.110;9.870;2023-04-20T01:06:05;0.80;;;0.80;;
65463;SDS011;52063;45.110;9.870;2023-04-20T01:08:31;0.85;;;0.65;;
65463;SDS011;52063;45.110;9.870;2023-04-20T01:10:56;1.00;;;0.70;;
65463;SDS011;52063;45.110;9.870;2023-04-20T01:13:22;2.15;;;0.88;;
65463;SDS011;52063;45.110;9.870;2023-04-20T01:15:48;1.10;;;1.00;;
65463;SDS011;52063;45.110;9.870;2023-04-20T01:18:14;0.80;;;0.80;;
65463;SDS011;52063;45.110;9.870;2023-04-20T01:20:42;0.90;;;0.75;;
65463;SDS011;52063;45.110;9.870;2023-04-20T01:23:07;1.03;;;0.87;;
65463;SDS011;52063;45.110;9.870;2023-04-20T01:25:34;1.00;;;0.80;;
65463;SDS011;52063;45.110;9.870;2023-04-20T01:28:00;0.98;;;0.80;;
65463;SDS011;52063;45.110;9.870;2023-04-20T01:30:27;0.90;;;0.80;;
65463;SDS011;52063;45.110;9.870;2023-04-20T01:32:54;1.00;;;0.90;;
65463;SDS011;52063;45.110;9.870;2023-04-20T01:35:21;1.10;;;0.90;;
65463;SDS011;52063;45.110;9.870;2023-04-20T01:37:46;1.17;;;1.07;;
65463;SDS011;52063;45.110;9.870;2023-04-20T01:40:12;1.20;;;1.10;;
65463;SDS011;52063;45.110;9.870;2023-04-20T01:42:38;2.00;;;0.80;;
65463;SDS011;52063;45.110;9.870;2023-04-20T01:45:06;0.80;;;0.73;;
65463;SDS011;52063;45.110;9.870;2023-04-20T01:47:34;1.17;;;1.00;;
65463;SDS011;52063;45.110;9.870;2023-04-20T01:49:59;1.50;;;1.10;;
65463;SDS011;52063;45.110;9.870;2023-04-20T01:52:25;1.30;;;1.00;;
65463;SDS011;52063;45.110;9.870;2023-04-20T01:54:50;1.27;;;0.90;;
65463;SDS011;52063;45.110;9.870;2023-04-20T01:57:16;0.83;;;0.77;;
65463;SDS011;52063;45.110;9.870;2023-04-20T01:59:41;0.70;;;0.55;;
65463;SDS011;52063;45.110;9.870;2023-04-20T02:02:06;1.30;;;0.60;;
65463;SDS011;52063;45.110;9.870;2023-04-20T02:04:32;1.73;;;1.07;;
65463;SDS011;52063;45.110;9.870;2023-04-20T02:06:58;2.40;;;0.98;;
65463;SDS011;52063;45.110;9.870;2023-04-20T02:09:24;0.60;;;0.50;;
65463;SDS011;52063;45.110;9.870;2023-04-20T02:11:49;0.87;;;0.80;;
65463;SDS011;52063;45.110;9.870;2023-04-20T02:14:15;1.15;;;0.88;;
65463;SDS011;52063;45.110;9.870;2023-04-20T02:16:40;1.00;;;0.90;;
65463;SDS011;52063;45.110;9.870;2023-04-20T02:19:06;0.85;;;0.80;;
65463;SDS011;52063;45.110;9.870;2023-04-20T02:21:32;0.90;;;0.80;;
65463;SDS011;52063;45.110;9.870;2023-04-20T02:23:58;0.83;;;0.80;;
65463;SDS011;52063;45.110;9.870;2023-04-20T02:26:25;0.90;;;0.70;;
65463;SDS011;52063;45.110;9.870;2023-04-20T02:28:51;1.00;;;0.90;;
65463;SDS011;52063;45.110;9.870;2023-04-20T02:31:16;0.93;;;0.80;;
65463;SDS011;52063;45.110;9.870;2023-04-20T02:33:43;0.80;;;0.63;;
65463;SDS011;52063;45.110;9.870;2023-04-20T02:36:08;1.57;;;0.80;;
65463;SDS011;52063;45.110;9.870;2023-04-20T02:38:34;0.95;;;0.80;;
65463;SDS011;52063;45.110;9.870;2023-04-20T02:41:00;0.97;;;0.80;;
65463;SDS011;52063;45.110;9.870;2023-04-20T02:43:26;0.93;;;0.75;;
65463;SDS011;52063;45.110;9.870;2023-04-20T02:45:52;1.00;;;0.73;;
65463;SDS011;52063;45.110;9.870;2023-04-20T02:48:20;0.80;;;0.70;;
65463;SDS011;52063;45.110;9.870;2023-04-20T02:50:46;1.15;;;0.70;;
65463;SDS011;52063;45.110;9.870;2023-04-20T02:53:16;1.17;;;0.80;;
65463;SDS011;52063;45.110;9.870;2023-04-20T02:55:45;1.60;;;0.70;;
65463;SDS011;52063;45.110;9.870;2023-04-20T02:58:21;1.17;;;0.80;;
65463;SDS011;52063;45.110;9.870;2023-04-20T03:01:22;0.80;;;0.80;;
65463;SDS011;52063;45.110;9.870;2023-04-20T03:03:53;1.35;;;0.82;;
65463;SDS011;52063;45.110;9.870;2023-04-20T03:06:18;0.88;;;0.70;;
65463;SDS011;52063;45.110;9.870;2023-04-20T03:08:52;4.30;;;0.80;;
65463;SDS011;52063;45.110;9.870;2023-04-20T03:11:36;0.83;;;0.77;;
65463;SDS011;52063;45.110;9.870;2023-04-20T03:14:02;1.00;;;0.75;;
65463;SDS011;52063;45.110;9.870;2023-04-20T03:16:29;1.13;;;0.90;;
65463;SDS011;52063;45.110;9.870;2023-04-20T03:18:55;1.10;;;0.75;;
65463;SDS011;52063;45.110;9.870;2023-04-20T03:21:22;3.70;;;0.90;;
65463;SDS011;52063;45.110;9.870;2023-04-20T03:23:47;3.17;;;1.00;;
65463;SDS011;52063;45.110;9.870;2023-04-20T03:26:13;1.00;;;0.80;;
65463;SDS011;52063;45.110;9.870;2023-04-20T03:28:54;1.20;;;0.70;;
65463;SDS011;52063;45.110;9.870;2023-04-20T03:31:23;0.90;;;0.73;;
65463;SDS011;52063;45.110;9.870;2023-04-20T03:33:50;0.93;;;0.80;;
65463;SDS011;52063;45.110;9.870;2023-04-20T03:36:15;2.10;;;0.80;;
65463;SDS011;52063;45.110;9.870;2023-04-20T03:38:41;1.65;;;0.80;;
65463;SDS011;52063;45.110;9.870;2023-04-20T03:41:07;0.80;;;0.70;;
65463;SDS011;52063;45.110;9.870;2023-04-20T03:43:33;0.73;;;0.60;;
65463;SDS011;52063;45.110;9.870;2023-04-20T03:45:58;0.80;;;0.70;;
65463;SDS011;52063;45.110;9.870;2023-04-20T03:48:24;0.70;;;0.60;;
65463;SDS011;52063;45.110;9.870;2023-04-20T03:50:50;1.25;;;0.75;;
65463;SDS011;52063;45.110;9.870;2023-04-20T03:53:16;1.90;;;0.80;;
65463;SDS011;52063;45.110;9.870;2023-04-20T03:55:42;0.70;;;0.52;;
65463;SDS011;52063;45.110;9.870;2023-04-20T03:58:11;0.93;;;0.70;;
65463;SDS011;52063;45.110;9.870;2023-04-20T04:01:06;1.15;;;0.60;;
65463;SDS011;52063;45.110;9.870;2023-04-20T04:03:37;0.90;;;0.80;;
65463;SDS011;52063;45.110;9.870;2023-04-20T04:06:03;0.95;;;0.75;;
65463;SDS011;52063;45.110;9.870;2023-04-20T04:08:31;1.10;;;0.80;;
65463;SDS011;52063;45.110;9.870;2023-04-20T04:10:57;0.85;;;0.75;;
65463;SDS011;52063;45.110;9.870;2023-04-20T04:13:23;0.80;;;0.70;;
65463;SDS011;52063;45.110;9.870;2023-04-20T04:15:49;1.50;;;0.60;;
65463;SDS011;52063;45.110;9.870;2023-04-20T04:18:18;1.00;;;0.90;;
65463;SDS011;52063;45.110;9.870;2023-04-20T04:20:45;1.08;;;0.68;;
65463;SDS011;52063;45.110;9.870;2023-04-20T04:23:11;0.90;;;0.55;;
65463;SDS011;52063;45.110;9.870;2023-04-20T04:25:44;0.82;;;0.70;;
65463;SDS011;52063;45.110;9.870;2023-04-20T04:28:10;0.80;;;0.60;;
65463;SDS011;52063;45.110;9.870;2023-04-20T04:30:44;0.80;;;0.77;;
65463;SDS011;52063;45.110;9.870;2023-04-20T04:33:11;0.90;;;0.70;;
65463;SDS011;52063;45.110;9.870;2023-04-20T04:35:39;0.88;;;0.80;;
65463;SDS011;52063;45.110;9.870;2023-04-20T04:38:06;0.70;;;0.70;;
65463;SDS011;52063;45.110;9.870;2023-04-20T04:40:33;1.00;;;0.83;;
65463;SDS011;52063;45.110;9.870;2023-04-20T04:43:00;1.10;;;0.73;;
65463;SDS011;52063;45.110;9.870;2023-04-20T04:45:27;0.93;;;0.73;;
65463;SDS011;52063;45.110;9.870;2023-04-20T04:47:53;2.25;;;0.65;;
65463;SDS011;52063;45.110;9.870;2023-04-20T04:50:19;1.10;;;0.80;;
65463;SDS011;52063;45.110;9.870;2023-04-20T04:52:44;0.90;;;0.70;;
65463;SDS011;52063;45.110;9.870;2023-04-20T04:55:10;0.80;;;0.80;;
65463;SDS011;52063;45.110;9.870;2023-04-20T04:57:35;0.80;;;0.63;;
65463;SDS011;52063;45.110;9.870;2023-04-20T05:00:03;0.70;;;0.63;;
65463;SDS011;52063;45.110;9.870;2023-04-20T05:02:33;1.35;;;0.70;;
65463;SDS011;52063;45.110;9.870;2023-04-20T05:04:59;0.65;;;0.60;;
65463;SDS011;52063;45.110;9.870;2023-04-20T05:07:25;0.90;;;0.80;;
65463;SDS011;52063;45.110;9.870;2023-04-20T05:09:50;1.50;;;0.77;;
65463;SDS011;52063;45.110;9.870;2023-04-20T05:12:16;0.90;;;0.60;;
65463;SDS011;52063;45.110;9.870;2023-04-20T05:14:42;0.90;;;0.70;;
65463;SDS011;52063;45.110;9.870;2023-04-20T05:17:07;3.13;;;0.67;;
65463;SDS011;52063;45.110;9.870;2023-04-20T05:19:33;1.23;;;0.60;;
65463;SDS011;52063;45.110;9.870;2023-04-20T05:21:58;1.08;;;0.77;;
65463;SDS011;52063;45.110;9.870;2023-04-20T05:24:24;0.90;;;0.63;;
65463;SDS011;52063;45.110;9.870;2023-04-20T05:26:49;1.00;;;0.70;;
65463;SDS011;52063;45.110;9.870;2023-04-20T05:29:15;0.80;;;0.70;;
65463;SDS011;52063;45.110;9.870;2023-04-20T05:31:41;0.80;;;0.70;;
65463;SDS011;52063;45.110;9.870;2023-04-20T05:34:06;0.80;;;0.75;;
65463;SDS011;52063;45.110;9.870;2023-04-20T05:36:32;0.70;;;0.60;;
65463;SDS011;52063;45.110;9.870;2023-04-20T05:39:00;0.82;;;0.73;;
65463;SDS011;52063;45.110;9.870;2023-04-20T05:41:25;0.87;;;0.77;;
65463;SDS011;52063;45.110;9.870;2023-04-20T05:43:51;0.80;;;0.57;;
65463;SDS011;52063;45.110;9.870;2023-04-20T05:46:18;0.60;;;0.60;;
65463;SDS011;52063;45.110;9.870;2023-04-20T05:48:44;1.85;;;0.55;;
65463;SDS011;52063;45.110;9.870;2023-04-20T05:51:10;0.75;;;0.70;;
65463;SDS011;52063;45.110;9.870;2023-04-20T05:53:35;0.90;;;0.73;;
65463;SDS011;52063;45.110;9.870;2023-04-20T05:56:01;0.90;;;0.80;;
65463;SDS011;52063;45.110;9.870;2023-04-20T05:58:27;0.98;;;0.70;;
65463;SDS011;52063;45.110;9.870;2023-04-20T06:00:53;0.70;;;0.50;;
65463;SDS011;52063;45.110;9.870;2023-04-20T06:03:18;0.75;;;0.50;;
65463;SDS011;52063;45.110;9.870;2023-04-20T06:05:44;0.85;;;0.60;;
65463;SDS011;52063;45.110;9.870;2023-04-20T06:08:10;0.60;;;0.60;;
65463;SDS011;52063;45.110;9.870;2023-04-20T06:10:36;0.70;;;0.70;;
65463;SDS011;52063;45.110;9.870;2023-04-20T06:13:01;0.70;;;0.53;;
65463;SDS011;52063;45.110;9.870;2023-04-20T06:15:26;0.87;;;0.67;;
65463;SDS011;52063;45.110;9.870;2023-04-20T06:17:52;0.67;;;0.60;;
65463;SDS011;52063;45.110;9.870;2023-04-20T06:20:17;0.97;;;0.60;;
65463;SDS011;52063;45.110;9.870;2023-04-20T06:22:44;0.80;;;0.55;;
65463;SDS011;52063;45.110;9.870;2023-04-20T06:25:10;0.75;;;0.60;;
65463;SDS011;52063;45.110;9.870;2023-04-20T06:27:36;1.33;;;0.57;;
65463;SDS011;52063;45.110;9.870;2023-04-20T06:30:01;1.10;;;0.70;;
65463;SDS011;52063;45.110;9.870;2023-04-20T06:32:28;1.17;;;0.60;;
65463;SDS011;52063;45.110;9.870;2023-04-20T06:34:53;0.80;;;0.60;;
65463;SDS011;52063;45.110;9.870;2023-04-20T06:37:18;2.85;;;0.88;;
65463;SDS011;52063;45.110;9.870;2023-04-20T06:39:44;0.93;;;0.67;;
65463;SDS011;52063;45.110;9.870;2023-04-20T06:42:09;0.63;;;0.50;;
65463;SDS011;52063;45.110;9.870;2023-04-20T06:44:35;0.90;;;0.80;;
65463;SDS011;52063;45.110;9.870;2023-04-20T06:47:00;1.90;;;1.20;;
65463;SDS011;52063;45.110;9.870;2023-04-20T06:49:26;4.10;;;1.27;;
65463;SDS011;52063;45.110;9.870;2023-04-20T06:51:51;2.57;;;1.90;;
65463;SDS011;52063;45.110;9.870;2023-04-20T06:54:17;2.15;;;1.95;;
65463;SDS011;52063;45.110;9.870;2023-04-20T06:56:42;3.07;;;2.17;;
65463;SDS011;52063;45.110;9.870;2023-04-20T06:59:07;2.50;;;2.30;;
65463;SDS011;52063;45.110;9.870;2023-04-20T07:01:33;2.60;;;2.40;;
65463;SDS011;52063;45.110;9.870;2023-04-20T07:03:58;3.88;;;2.08;;
65463;SDS011;52063;45.110;9.870;2023-04-20T07:06:24;3.67;;;2.10;;
65463;SDS011;52063;45.110;9.870;2023-04-20T07:08:51;2.00;;;1.90;;
65463;SDS011;52063;45.110;9.870;2023-04-20T07:11:17;2.27;;;1.33;;
65463;SDS011;52063;45.110;9.870;2023-04-20T07:13:42;2.05;;;1.80;;
65463;SDS011;52063;45.110;9.870;2023-04-20T07:16:08;2.07;;;1.60;;
65463;SDS011;52063;45.110;9.870;2023-04-20T07:18:34;1.75;;;1.50;;
65463;SDS011;52063;45.110;9.870;2023-04-20T07:21:00;1.77;;;1.40;;
65463;SDS011;52063;45.110;9.870;2023-04-20T07:23:26;7.40;;;1.50;;
65463;SDS011;52063;45.110;9.870;2023-04-20T07:25:51;3.10;;;1.30;;
65463;SDS011;52063;45.110;9.870;2023-04-20T07:28:16;1.57;;;1.47;;
65463;SDS011;52063;45.110;9.870;2023-04-20T07:30:42;3.13;;;1.30;;
65463;SDS011;52063;45.110;9.870;2023-04-20T07:33:07;1.75;;;1.60;;
65463;SDS011;52063;45.110;9.870;2023-04-20T07:35:35;1.40;;;1.20;;
65463;SDS011;52063;45.110;9.870;2023-04-20T07:38:00;2.60;;;1.38;;
65463;SDS011;52063;45.110;9.870;2023-04-20T07:40:26;2.37;;;1.10;;
65463;SDS011;52063;45.110;9.870;2023-04-20T07:42:51;1.40;;;1.10;;
65463;SDS011;52063;45.110;9.870;2023-04-20T07:45:17;1.50;;;1.20;;
65463;SDS011;52063;45.110;9.870;2023-04-20T07:47:43;1.50;;;1.00;;
65463;SDS011;52063;45.110;9.870;2023-04-20T07:50:11;2.60;;;1.30;;
65463;SDS011;52063;45.110;9.870;2023-04-20T07:52:36;1.75;;;1.20;;
65463;SDS011;52063;45.110;9.870;2023-04-20T07:55:02;1.87;;;1.10;;
65463;SDS011;52063;45.110;9.870;2023-04-20T07:57:29;2.58;;;1.00;;
65463;SDS011;52063;45.110;9.870;2023-04-20T07:59:54;1.55;;;1.17;;
65463;SDS011;52063;45.110;9.870;2023-04-20T08:02:20;2.40;;;1.13;;
65463;SDS011;52063;45.110;9.870;2023-04-20T08:04:45;2.50;;;0.97;;
65463;SDS011;52063;45.110;9.870;2023-04-20T08:07:12;1.50;;;1.10;;
65463;SDS011;52063;45.110;9.870;2023-04-20T08:09:38;1.77;;;1.05;;
65463;SDS011;52063;45.110;9.870;2023-04-20T08:12:04;2.17;;;1.00;;
65463;SDS011;52063;45.110;9.870;2023-04-20T08:14:29;1.40;;;1.10;;
65463;SDS011;52063;45.110;9.870;2023-04-20T08:16:55;1.17;;;1.00;;
65463;SDS011;52063;45.110;9.870;2023-04-20T08:19:20;1.20;;;0.90;;
65463;SDS011;52063;45.110;9.870;2023-04-20T08:21:46;1.05;;;0.95;;
65463;SDS011;52063;45.110;9.870;2023-04-20T08:24:11;2.00;;;0.90;;
65463;SDS011;52063;45.110;9.870;2023-04-20T08:26:37;1.50;;;1.10;;
65463;SDS011;52063;45.110;9.870;2023-04-20T08:29:03;1.17;;;1.00;;
65463;SDS011;52063;45.110;9.870;2023-04-20T08:31:29;0.97;;;0.87;;
65463;SDS011;52063;45.110;9.870;2023-04-20T08:33:55;2.33;;;1.00;;
65463;SDS011;52063;45.110;9.870;2023-04-20T08:36:21;1.13;;;1.02;;
65463;SDS011;52063;45.110;9.870;2023-04-20T08:38:51;1.40;;;1.00;;
65463;SDS011;52063;45.110;9.870;2023-04-20T08:41:18;1.20;;;1.10;;
65463;SDS011;52063;45.110;9.870;2023-04-20T08:43:44;1.13;;;0.87;;
65463;SDS011;52063;45.110;9.870;2023-04-20T08:46:10;1.88;;;1.08;;
65463;SDS011;52063;45.110;9.870;2023-04-20T08:48:37;1.10;;;0.83;;
65463;SDS011;52063;45.110;9.870;2023-04-20T08:51:03;1.10;;;1.00;;
65463;SDS011;52063;45.110;9.870;2023-04-20T08:53:29;1.75;;;0.88;;
65463;SDS011;52063;45.110;9.870;2023-04-20T08:55:56;1.00;;;0.80;;
65463;SDS011;52063;45.110;9.870;2023-04-20T08:58:27;0.70;;;0.60;;
65463;SDS011;52063;45.110;9.870;2023-04-20T09:00:53;1.75;;;0.80;;
65463;SDS011;52063;45.110;9.870;2023-04-20T09:03:31;0.90;;;0.70;;
65463;SDS011;52063;45.110;9.870;2023-04-20T09:05:57;1.60;;;1.00;;
65463;SDS011;52063;45.110;9.870;2023-04-20T09:08:32;1.85;;;0.90;;
65463;SDS011;52063;45.110;9.870;2023-04-20T09:11:02;2.33;;;1.00;;
65463;SDS011;52063;45.110;9.870;2023-04-20T09:13:27;1.13;;;0.93;;
65463;SDS011;52063;45.110;9.870;2023-04-20T09:15:53;1.20;;;1.03;;
65463;SDS011;52063;45.110;9.870;2023-04-20T09:18:19;1.40;;;1.00;;
65463;SDS011;52063;45.110;9.870;2023-04-20T09:20:44;1.23;;;0.90;;
65463;SDS011;52063;45.110;9.870;2023-04-20T09:23:10;1.40;;;1.00;;
65463;SDS011;52063;45.110;9.870;2023-04-20T09:25:42;1.63;;;0.80;;
65463;SDS011;52063;45.110;9.870;2023-04-20T09:28:11;0.90;;;0.80;;
65463;SDS011;52063;45.110;9.870;2023-04-20T09:30:41;0.90;;;0.80;;
65463;SDS011;52063;45.110;9.870;2023-04-20T09:33:11;2.30;;;0.90;;
65463;SDS011;52063;45.110;9.870;2023-04-20T09:35:38;1.00;;;0.88;;
65463;SDS011;52063;45.110;9.870;2023-04-20T09:38:09;1.10;;;0.98;;
65463;SDS011;52063;45.110;9.870;2023-04-20T09:40:36;1.08;;;0.98;;
65463;SDS011;52063;45.110;9.870;2023-04-20T09:43:03;1.60;;;0.70;;
65463;SDS011;52063;45.110;9.870;2023-04-20T09:45:33;1.60;;;0.85;;
65463;SDS011;52063;45.110;9.870;2023-04-20T09:47:59;1.10;;;0.85;;
65463;SDS011;52063;45.110;9.870;2023-04-20T09:50:25;0.98;;;0.70;;
65463;SDS011;52063;45.110;9.870;2023-04-20T09:52:51;1.00;;;0.80;;
65463;SDS011;52063;45.110;9.870;2023-04-20T09:55:16;1.13;;;0.90;;
65463;SDS011;52063;45.110;9.870;2023-04-20T09:57:42;0.90;;;0.70;;
65463;SDS011;52063;45.110;9.870;2023-04-20T10:00:08;0.90;;;0.70;;
65463;SDS011;52063;45.110;9.870;2023-04-20T10:02:35;0.90;;;0.60;;
65463;SDS011;52063;45.110;9.870;2023-04-20T10:05:01;1.50;;;0.73;;
65463;SDS011;52063;45.110;9.870;2023-04-20T10:07:28;1.50;;;0.80;;
65463;SDS011;52063;45.110;9.870;2023-04-20T10:10:29;1.00;;;0.80;;
65463;SDS011;52063;45.110;9.870;2023-04-20T10:12:48;1.85;;;0.80;;
65463;SDS011;52063;45.110;9.870;2023-04-20T10:15:15;1.13;;;1.02;;
65463;SDS011;52063;45.110;9.870;2023-04-20T10:17:41;0.80;;;0.75;;
65463;SDS011;52063;45.110;9.870;2023-04-20T10:20:19;0.80;;;0.70;;
65463;SDS011;52063;45.110;9.870;2023-04-20T10:22:50;1.52;;;0.82;;
65463;SDS011;52063;45.110;9.870;2023-04-20T10:25:17;0.90;;;0.63;;
65463;SDS011;52063;45.110;9.870;2023-04-20T10:27:55;1.20;;;0.90;;
65463;SDS011;52063;45.110;9.870;2023-04-20T10:30:22;1.30;;;0.80;;
65463;SDS011;52063;45.110;9.870;2023-04-20T10:32:49;1.90;;;0.98;;
65463;SDS011;52063;45.110;9.870;2023-04-20T10:35:14;1.15;;;0.70;;
65463;SDS011;52063;45.110;9.870;2023-04-20T10:37:50;1.10;;;0.90;;
65463;SDS011;52063;45.110;9.870;2023-04-20T10:40:16;1.00;;;0.70;;
65463;SDS011;52063;45.110;9.870;2023-04-20T10:42:45;0.90;;;0.77;;
65463;SDS011;52063;45.110;9.870;2023-04-20T10:45:11;0.98;;;0.82;;
65463;SDS011;52063;45.110;9.870;2023-04-20T10:47:36;0.80;;;0.70;;
65463;SDS011;52063;45.110;9.870;2023-04-20T10:50:08;0.97;;;0.70;;
65463;SDS011;52063;45.110;9.870;2023-04-20T10:52:35;1.17;;;0.88;;
65463;SDS011;52063;45.110;9.870;2023-04-20T10:55:01;1.00;;;0.90;;
65463;SDS011;52063;45.110;9.870;2023-04-20T10:57:28;0.80;;;0.80;;
65463;SDS011;52063;45.110;9.870;2023-04-20T10:59:53;1.20;;;1.10;;
65463;SDS011;52063;45.110;9.870;2023-04-20T11:02:19;1.17;;;0.90;;
65463;SDS011;52063;45.110;9.870;2023-04-20T11:04:44;1.10;;;0.80;;
65463;SDS011;52063;45.110;9.870;2023-04-20T11:07:10;0.95;;;0.80;;
65463;SDS011;52063;45.110;9.870;2023-04-20T11:09:39;0.90;;;0.80;;
65463;SDS011;52063;45.110;9.870;2023-04-20T11:12:07;1.10;;;0.90;;
65463;SDS011;52063;45.110;9.870;2023-04-20T11:14:53;0.80;;;0.80;;
65463;SDS011;52063;45.110;9.870;2023-04-20T11:17:19;1.20;;;0.90;;
65463;SDS011;52063;45.110;9.870;2023-04-20T11:20:02;1.10;;;0.60;;
65463;SDS011;52063;45.110;9.870;2023-04-20T11:22:30;0.90;;;0.80;;
65463;SDS011;52063;45.110;9.870;2023-04-20T11:25:06;1.10;;;1.00;;
65463;SDS011;52063;45.110;9.870;2023-04-20T11:27:32;1.10;;;0.85;;
65463;SDS011;52063;45.110;9.870;2023-04-20T11:29:58;1.10;;;0.85;;
65463;SDS011;52063;45.110;9.870;2023-04-20T11:32:25;1.00;;;0.90;;
65463;SDS011;52063;45.110;9.870;2023-04-20T11:35:01;1.00;;;0.90;;
65463;SDS011;52063;45.110;9.870;2023-04-20T11:37:31;1.00;;;0.90;;
65463;SDS011;52063;45.110;9.870;2023-04-20T11:40:01;1.45;;;1.02;;
65463;SDS011;52063;45.110;9.870;2023-04-20T11:42:30;1.30;;;0.90;;
65463;SDS011;52063;45.110;9.870;2023-04-20T11:44:55;0.97;;;0.87;;
65463;SDS011;52063;45.110;9.870;2023-04-20T11:47:20;1.00;;;0.90;;
65463;SDS011;52063;45.110;9.870;2023-04-20T11:49:46;0.93;;;0.80;;
65463;SDS011;52063;45.110;9.870;2023-04-20T11:52:11;1.08;;;0.90;;
65463;SDS011;52063;45.110;9.870;2023-04-20T11:54:37;1.60;;;0.90;;
65463;SDS011;52063;45.110;9.870;2023-04-20T11:57:02;0.70;;;0.70;;
65463;SDS011;52063;45.110;9.870;2023-04-20T11:59:28;1.42;;;0.85;;
65463;SDS011;52063;45.110;9.870;2023-04-20T12:01:54;0.90;;;0.83;;
65463;SDS011;52063;45.110;9.870;2023-04-20T12:04:19;1.20;;;0.80;;
65463;SDS011;52063;45.110;9.870;2023-04-20T12:06:45;0.80;;;0.75;;
65463;SDS011;52063;45.110;9.870;2023-04-20T12:09:11;1.10;;;1.00;;
65463;SDS011;52063;45.110;9.870;2023-04-20T12:11:37;1.27;;;1.00;;
65463;SDS011;52063;45.110;9.870;2023-04-20T12:14:02;1.15;;;0.90;;
65463;SDS011;52063;45.110;9.870;2023-04-20T12:16:29;0.90;;;0.80;;
65463;SDS011;52063;45.110;9.870;2023-04-20T12:18:54;0.90;;;0.70;;
65463;SDS011;52063;45.110;9.870;2023-04-20T12:21:20;0.80;;;0.80;;
65463;SDS011;52063;45.110;9.870;2023-04-20T12:23:46;0.90;;;0.80;;
65463;SDS011;52063;45.110;9.870;2023-04-20T12:26:13;1.05;;;0.95;;
65463;SDS011;52063;45.110;9.870;2023-04-20T12:28:39;2.07;;;1.10;;
65463;SDS011;52063;45.110;9.870;2023-04-20T12:31:04;1.00;;;0.80;;
65463;SDS011;52063;45.110;9.870;2023-04-20T12:33:29;1.20;;;1.00;;
65463;SDS011;52063;45.110;9.870;2023-04-20T12:35:55;1.53;;;0.80;;
65463;SDS011;52063;45.110;9.870;2023-04-20T12:38:20;0.90;;;0.80;;
65463;SDS011;52063;45.110;9.870;2023-04-20T12:40:46;1.20;;;1.10;;
65463;SDS011;52063;45.110;9.870;2023-04-20T12:43:11;0.80;;;0.80;;
65463;SDS011;52063;45.110;9.870;2023-04-20T12:45:36;1.43;;;0.80;;
65463;SDS011;52063;45.110;9.870;2023-04-20T12:48:02;1.10;;;0.60;;
65463;SDS011;52063;45.110;9.870;2023-04-20T12:50:28;1.25;;;1.15;;
65463;SDS011;52063;45.110;9.870;2023-04-20T12:52:53;2.70;;;0.90;;
65463;SDS011;52063;45.110;9.870;2023-04-20T12:55:20;1.27;;;1.10;;
65463;SDS011;52063;45.110;9.870;2023-04-20T12:57:46;0.90;;;0.80;;
65463;SDS011;52063;45.110;9.870;2023-04-20T13:00:12;0.80;;;0.77;;
65463;SDS011;52063;45.110;9.870;2023-04-20T13:02:38;1.10;;;0.90;;
65463;SDS011;52063;45.110;9.870;2023-04-20T13:05:03;1.02;;;0.93;;
65463;SDS011;52063;45.110;9.870;2023-04-20T13:07:29;1.10;;;0.90;;
65463;SDS011;52063;45.110;9.870;2023-04-20T13:09:55;1.00;;;0.90;;
65463;SDS011;52063;45.110;9.870;2023-04-20T13:12:21;1.17;;;1.08;;
65463;SDS011;52063;45.110;9.870;2023-04-20T13:14:46;1.13;;;1.03;;
65463;SDS011;52063;45.110;9.870;2023-04-20T13:17:12;1.13;;;1.02;;
65463;SDS011;52063;45.110;9.870;2023-04-20T13:19:37;1.10;;;1.00;;
65463;SDS011;52063;45.110;9.870;2023-04-20T13:22:03;0.80;;;0.80;;
65463;SDS011;52063;45.110;9.870;2023-04-20T13:24:29;0.93;;;0.82;;
65463;SDS011;52063;45.110;9.870;2023-04-20T13:26:55;1.02;;;0.93;;
65463;SDS011;52063;45.110;9.870;2023-04-20T13:29:21;1.10;;;0.60;;
65463;SDS011;52063;45.110;9.870;2023-04-20T13:31:49;1.20;;;1.10;;
65463;SDS011;52063;45.110;9.870;2023-04-20T13:34:15;1.20;;;1.10;;
65463;SDS011;52063;45.110;9.870;2023-04-20T13:36:42;0.88;;;0.88;;
65463;SDS011;52063;45.110;9.870;2023-04-20T13:39:08;1.10;;;1.00;;
65463;SDS011;52063;45.110;9.870;2023-04-20T13:41:34;1.10;;;1.00;;
65463;SDS011;52063;45.110;9.870;2023-04-20T13:44:00;0.88;;;0.77;;
65463;SDS011;52063;45.110;9.870;2023-04-20T13:46:26;1.13;;;0.80;;
65463;SDS011;52063;45.110;9.870;2023-04-20T13:48:52;0.88;;;0.70;;
65463;SDS011;52063;45.110;9.870;2023-04-20T13:51:18;1.63;;;1.33;;
65463;SDS011;52063;45.110;9.870;2023-04-20T13:53:43;1.13;;;1.02;;
65463;SDS011;52063;45.110;9.870;2023-04-20T13:56:09;1.07;;;0.97;;
65463;SDS011;52063;45.110;9.870;2023-04-20T13:58:34;1.85;;;1.20;;
65463;SDS011;52063;45.110;9.870;2023-04-20T14:01:05;1.27;;;1.17;;
65463;SDS011;52063;45.110;9.870;2023-04-20T14:03:31;1.23;;;1.13;;
65463;SDS011;52063;45.110;9.870;2023-04-20T14:05:56;1.30;;;1.00;;
65463;SDS011;52063;45.110;9.870;2023-04-20T14:08:22;1.00;;;0.90;;
65463;SDS011;52063;45.110;9.870;2023-04-20T14:10:47;1.00;;;0.90;;
65463;SDS011;52063;45.110;9.870;2023-04-20T14:13:13;0.90;;;0.90;;
65463;SDS011;52063;45.110;9.870;2023-04-20T14:15:38;1.03;;;0.93;;
65463;SDS011;52063;45.110;9.870;2023-04-20T14:18:05;1.02;;;0.93;;
65463;SDS011;52063;45.110;9.870;2023-04-20T14:20:30;1.33;;;0.90;;
65463;SDS011;52063;45.110;9.870;2023-04-20T14:22:56;1.10;;;1.00;;
65463;SDS011;52063;45.110;9.870;2023-04-20T14:25:21;1.43;;;0.90;;
65463;SDS011;52063;45.110;9.870;2023-04-20T14:27:48;1.35;;;1.25;;
65463;SDS011;52063;45.110;9.870;2023-04-20T14:30:13;1.00;;;0.83;;
65463;SDS011;52063;45.110;9.870;2023-04-20T14:32:39;1.02;;;0.93;;
65463;SDS011;52063;45.110;9.870;2023-04-20T14:35:05;1.40;;;1.27;;
65463;SDS011;52063;45.110;9.870;2023-04-20T14:37:33;0.90;;;0.90;;
65463;SDS011;52063;45.110;9.870;2023-04-20T14:39:58;1.48;;;0.93;;
65463;SDS011;52063;45.110;9.870;2023-04-20T14:42:24;1.20;;;1.10;;
65463;SDS011;52063;45.110;9.870;2023-04-20T14:44:49;1.30;;;1.20;;